createdAt,value
2018-08-17T06:35:24.378Z,17.80
2018-08-17T06:37:52.881Z,18.50
2018-08-17T06:40:21.465Z,18.40
2018-08-17T06:42:49.971Z,18.40
2018-08-17T06:45:18.502Z,18.30
2018-08-17T06:47:46.969Z,18.30
2018-08-17T06:50:15.518Z,18.30
2018-08-17T06:52:43.991Z,18.40
2018-08-17T06:55:12.839Z,18.40
2018-08-17T06:57:41.536Z,18.50
2018-08-17T07:00:12.761Z,18.50
2018-08-17T07:02:41.805Z,18.60
2018-08-17T07:05:10.293Z,18.70
2018-08-17T07:07:38.925Z,18.70
2018-08-17T07:10:08.941Z,18.70
2018-08-17T07:12:37.423Z,18.80
2018-08-17T07:15:06.213Z,18.90
2018-08-17T07:17:34.930Z,18.90
2018-08-17T07:20:03.554Z,18.90
2018-08-17T07:22:32.078Z,18.90
2018-08-17T07:25:00.582Z,18.90
2018-08-17T07:27:29.094Z,18.90
2018-08-17T07:29:58.423Z,18.80
2018-08-17T07:32:26.931Z,18.80
2018-08-17T07:34:55.408Z,18.80
2018-08-17T07:37:23.890Z,18.80
2018-08-17T07:39:52.493Z,18.80
2018-08-17T07:42:21.004Z,18.80
2018-08-17T07:44:49.572Z,18.80
2018-08-17T07:47:18.051Z,18.80
2018-08-17T07:49:46.635Z,18.80
2018-08-17T07:52:15.115Z,18.80
2018-08-17T07:54:43.585Z,18.80
2018-08-17T07:57:12.078Z,18.70
2018-08-17T07:59:40.605Z,18.70
2018-08-17T08:02:09.194Z,18.70
2018-08-17T08:04:37.662Z,18.80
2018-08-17T08:07:06.134Z,18.80
2018-08-17T08:09:34.627Z,18.80
2018-08-17T08:12:03.082Z,18.80
2018-08-17T08:14:31.554Z,18.80
2018-08-17T08:17:00.066Z,18.80
2018-08-17T08:19:28.659Z,18.90
2018-08-17T08:21:57.142Z,18.90
2018-08-17T08:24:25.623Z,19.00
2018-08-17T08:26:54.089Z,19.10
2018-08-17T08:29:22.716Z,19.20
2018-08-17T08:31:51.162Z,19.40
2018-08-17T08:34:19.633Z,19.50
2018-08-17T08:36:48.187Z,19.60
2018-08-17T08:39:16.853Z,19.70
2018-08-17T08:41:45.355Z,19.90
2018-08-17T08:44:13.824Z,20.20
2018-08-17T08:46:42.650Z,20.60
2018-08-17T08:49:11.253Z,20.70
2018-08-17T08:51:39.711Z,21.00
2018-08-17T08:54:08.194Z,21.30
2018-08-17T08:56:36.682Z,21.50
2018-08-17T08:59:05.259Z,21.70
2018-08-17T09:04:02.010Z,22.40
2018-08-17T09:06:30.463Z,22.60
2018-08-17T09:08:58.979Z,22.80
2018-08-17T09:11:27.481Z,23.10
2018-08-17T09:13:55.983Z,23.30
2018-08-17T09:16:24.482Z,23.60
2018-08-17T09:18:53.025Z,23.60
2018-08-17T09:21:21.511Z,23.30
2018-08-17T09:23:49.972Z,23.30
2018-08-17T09:26:18.447Z,23.30
2018-08-17T09:28:47.541Z,23.00
2018-08-17T09:31:16.097Z,22.90
2018-08-17T09:33:44.563Z,22.90
2018-08-17T09:36:13.049Z,23.10
2018-08-17T09:38:41.517Z,23.20
2018-08-17T09:41:10.008Z,23.00
2018-08-17T09:43:38.485Z,22.90
2018-08-17T09:46:07.037Z,22.90
2018-08-17T09:48:35.517Z,22.90
2018-08-17T09:51:04.055Z,22.80
2018-08-17T09:53:32.647Z,22.60
2018-08-17T09:56:01.203Z,22.30
2018-08-17T09:58:29.657Z,22.20
2018-08-17T10:01:03.278Z,22.40
2018-08-17T10:03:37.283Z,22.40
2018-08-17T10:06:11.006Z,22.40
2018-08-17T10:08:44.898Z,22.20
2018-08-17T10:11:13.397Z,22.00
2018-08-17T10:13:41.869Z,21.80
2018-08-17T10:16:10.353Z,21.50
2018-08-17T10:18:44.663Z,21.30
2018-08-17T10:21:14.681Z,21.20
2018-08-17T10:23:42.917Z,21.10
2018-08-17T10:26:11.400Z,21.30
2018-08-17T10:28:39.905Z,21.40
2018-08-17T10:31:08.385Z,21.70
2018-08-17T10:33:36.848Z,21.90
2018-08-17T10:36:05.321Z,22.00
2018-08-17T10:38:33.817Z,22.30
2018-08-17T10:41:02.322Z,22.50
2018-08-17T10:43:30.801Z,22.80
2018-08-17T10:46:04.606Z,23.20
2018-08-17T10:48:33.080Z,23.50
2018-08-17T10:51:01.566Z,23.70
2018-08-17T10:53:36.137Z,24.00
2018-08-17T10:56:04.812Z,24.40
2018-08-17T10:58:34.139Z,24.80
2018-08-17T11:01:02.642Z,25.00
2018-08-17T11:03:31.121Z,25.10
2018-08-17T11:05:59.592Z,25.10
2018-08-17T11:08:28.087Z,25.20
2018-08-17T11:10:56.627Z,25.10
2018-08-17T11:13:25.068Z,25.10
2018-08-17T11:15:53.584Z,24.60
2018-08-17T11:18:22.178Z,23.90
2018-08-17T11:20:50.786Z,23.40
2018-08-17T11:23:19.250Z,23.00
2018-08-17T11:25:47.736Z,22.90
2018-08-17T11:28:16.206Z,22.90
2018-08-17T11:30:44.755Z,22.90
2018-08-17T11:33:13.397Z,23.10
2018-08-17T11:35:41.939Z,23.30
2018-08-17T11:38:17.238Z,23.50
2018-08-17T11:40:45.862Z,23.70
2018-08-17T11:43:14.331Z,23.60
2018-08-17T11:45:44.776Z,23.50
2018-08-17T11:48:21.792Z,23.60
2018-08-17T11:50:50.493Z,23.90
2018-08-17T11:53:18.974Z,24.20
2018-08-17T11:55:47.456Z,24.40
2018-08-17T11:58:15.935Z,24.60
2018-08-17T12:00:44.564Z,24.90
2018-08-17T12:03:13.146Z,25.30
2018-08-17T12:05:41.623Z,25.00
2018-08-17T12:08:10.221Z,24.60
2018-08-17T12:10:38.643Z,24.30
2018-08-17T12:13:12.544Z,24.00
2018-08-17T12:15:46.338Z,23.70
2018-08-17T12:18:14.801Z,23.40
2018-08-17T12:20:43.388Z,23.20
2018-08-17T12:23:11.864Z,22.90
2018-08-17T12:25:59.938Z,22.70
2018-08-17T12:28:29.932Z,22.50
2018-08-17T12:30:59.474Z,22.20
2018-08-17T12:33:28.131Z,22.10
2018-08-17T12:35:56.661Z,22.00
2018-08-17T12:38:25.182Z,22.10
2018-08-17T12:40:54.855Z,22.20
2018-08-17T12:43:31.476Z,22.50
2018-08-17T12:45:59.961Z,22.80
2018-08-17T12:48:28.524Z,23.00
2018-08-17T12:51:02.326Z,23.30
2018-08-17T12:53:30.911Z,23.40
2018-08-17T12:55:59.537Z,23.90
2018-08-17T12:58:28.063Z,24.90
2018-08-17T13:00:56.597Z,25.70
2018-08-17T13:03:25.150Z,26.40
2018-08-17T13:08:21.810Z,27.30
2018-08-17T13:10:50.576Z,27.70
2018-08-17T13:13:19.055Z,27.50
2018-08-17T13:15:53.616Z,27.40
2018-08-17T13:18:23.076Z,27.50
2018-08-17T13:20:51.640Z,27.60
2018-08-17T13:23:20.481Z,27.80
2018-08-17T13:25:49.172Z,27.80
2018-08-17T13:28:17.668Z,28.00
2018-08-17T13:30:46.337Z,28.40
2018-08-17T13:35:43.088Z,29.60
2018-08-17T13:38:11.686Z,29.90
2018-08-17T13:40:40.267Z,30.40
2018-08-17T13:43:08.809Z,31.10
2018-08-17T13:45:37.348Z,31.20
2018-08-17T13:48:06.198Z,30.70
2018-08-17T13:50:34.879Z,30.70
2018-08-17T13:53:03.383Z,29.90
2018-08-17T13:55:31.922Z,29.00
2018-08-17T13:58:00.528Z,28.90
2018-08-17T14:00:29.095Z,29.80
2018-08-17T14:02:57.652Z,30.80
2018-08-17T14:05:26.258Z,34.10
2018-08-17T14:07:54.765Z,39.10
2018-08-17T14:15:19.686Z,49.50
2018-08-17T14:17:48.314Z,52.20
2018-08-17T14:20:16.935Z,54.10
2018-08-17T14:22:45.522Z,54.40
2018-08-17T14:25:14.052Z,51.50
2018-08-17T14:27:42.642Z,49.20
2018-08-17T14:30:16.808Z,46.00
2018-08-17T14:32:45.493Z,42.40
2018-08-17T14:35:14.519Z,42.00
2018-08-17T14:37:43.026Z,45.20
2018-08-17T14:40:11.688Z,48.20
2018-08-17T14:42:40.585Z,50.50
2018-08-17T14:45:09.969Z,47.70
2018-08-17T14:47:38.769Z,49.70
2018-08-17T14:50:09.503Z,52.10
2018-08-17T14:52:38.270Z,54.10
2018-08-17T14:55:07.072Z,55.70
2018-08-17T14:57:35.570Z,54.50
2018-08-17T15:00:04.834Z,54.00
2018-08-17T15:02:33.309Z,54.80
2018-08-17T15:05:01.829Z,55.10
2018-08-17T15:07:30.374Z,56.00
2018-08-17T15:09:58.895Z,56.30
2018-08-17T15:12:27.416Z,56.30
2018-08-17T15:14:56.036Z,56.60
2018-08-17T15:17:26.195Z,53.30
2018-08-17T15:19:54.767Z,48.10
2018-08-17T15:22:23.270Z,43.60
2018-08-17T15:24:51.776Z,40.50
2018-08-17T15:27:20.337Z,38.90
2018-08-17T15:29:49.062Z,37.10
2018-08-17T15:32:17.939Z,35.80
2018-08-17T15:34:46.436Z,35.80
2018-08-17T15:37:14.982Z,39.00
2018-08-17T15:39:43.566Z,39.30
2018-08-17T15:42:12.081Z,42.20
2018-08-17T15:44:40.623Z,45.50
2018-08-17T15:47:09.777Z,48.30
2018-08-17T15:49:38.358Z,50.50
2018-08-17T15:52:07.446Z,51.00
2018-08-17T15:54:36.007Z,49.60
2018-08-17T15:57:04.493Z,50.60
2018-08-17T15:59:33.823Z,50.60
2018-08-17T16:02:02.466Z,51.60
2018-08-17T16:04:30.987Z,52.40
2018-08-17T16:06:59.474Z,51.50
2018-08-17T16:09:28.036Z,48.60
2018-08-17T16:11:56.511Z,48.50
2018-08-17T16:14:25.070Z,47.40
2018-08-17T16:16:53.576Z,44.70
2018-08-17T16:19:22.219Z,41.60
2018-08-17T16:21:50.730Z,39.60
2018-08-17T16:24:19.804Z,37.20
2018-08-17T16:26:48.369Z,37.10
2018-08-17T16:29:18.873Z,37.90
2018-08-17T16:31:47.397Z,38.50
2018-08-17T16:34:16.274Z,38.70
2018-08-17T16:36:44.810Z,39.20
2018-08-17T16:39:15.435Z,38.70
2018-08-17T16:41:44.052Z,36.60
2018-08-17T16:44:13.269Z,34.50
2018-08-17T16:46:42.752Z,32.70
2018-08-17T16:49:11.342Z,31.20
2018-08-17T16:51:40.072Z,30.10
2018-08-17T16:54:08.954Z,31.30
2018-08-17T16:56:37.649Z,30.70
2018-08-17T16:59:06.560Z,30.10
2018-08-17T17:01:34.976Z,29.60
2018-08-17T17:04:03.577Z,29.10
2018-08-17T17:06:32.187Z,28.70
2018-08-17T17:09:04.659Z,28.40
2018-08-17T17:11:33.706Z,28.20
2018-08-17T17:16:46.485Z,27.60
2018-08-17T17:19:18.742Z,27.10
2018-08-17T17:24:16.847Z,26.30
2018-08-17T17:26:45.354Z,25.90
2018-08-17T17:29:13.939Z,25.50
2018-08-17T17:31:42.998Z,25.20
2018-08-17T17:34:11.759Z,24.90
2018-08-17T17:36:40.237Z,24.60
2018-08-17T17:39:11.510Z,24.40
2018-08-17T17:41:39.987Z,24.10
2018-08-17T17:44:08.470Z,23.90
2018-08-17T17:46:37.411Z,23.70
2018-08-17T17:49:05.935Z,23.50
2018-08-17T17:51:34.469Z,23.40
2018-08-17T17:54:02.958Z,23.20
2018-08-17T17:56:31.512Z,23.10
2018-08-17T17:59:05.452Z,22.90
2018-08-17T18:01:34.043Z,22.70
2018-08-17T18:04:02.533Z,22.60
2018-08-17T18:06:31.024Z,22.40
2018-08-17T18:09:01.811Z,22.30
2018-08-17T18:11:30.301Z,22.10
2018-08-17T18:13:59.097Z,22.00
2018-08-17T18:16:28.542Z,21.90
2018-08-17T18:18:57.627Z,21.70
2018-08-17T18:21:32.659Z,21.60
2018-08-17T18:26:53.885Z,21.30
2018-08-17T18:29:22.511Z,21.10
2018-08-17T18:31:50.994Z,20.90
2018-08-17T18:34:19.562Z,20.80
2018-08-17T18:36:48.145Z,20.60
2018-08-17T18:39:16.758Z,20.40
2018-08-17T18:41:45.243Z,20.30
2018-08-17T18:44:13.796Z,20.10
2018-08-17T18:46:42.486Z,19.90
2018-08-17T18:49:10.928Z,19.70
2018-08-17T18:51:39.411Z,19.60
2018-08-17T18:54:07.913Z,19.40
2018-08-17T18:56:36.402Z,19.20
2018-08-17T18:59:05.009Z,19.10
2018-08-17T19:01:33.516Z,18.90
2018-08-17T19:04:02.015Z,18.80
2018-08-17T19:06:30.570Z,18.70
2018-08-17T19:08:59.049Z,18.50
2018-08-17T19:11:27.550Z,18.40
2018-08-17T19:13:56.056Z,18.30
2018-08-17T19:16:24.582Z,18.20
2018-08-17T19:18:53.323Z,18.10
2018-08-17T19:21:21.861Z,18.00
2018-08-17T19:23:50.333Z,17.90
2018-08-17T19:26:18.919Z,17.80
2018-08-17T19:28:51.696Z,17.70
2018-08-17T19:31:20.210Z,17.60
2018-08-17T19:33:48.780Z,17.60
2018-08-17T19:36:17.273Z,17.50
2018-08-17T19:38:45.759Z,17.40
2018-08-17T19:41:14.241Z,17.40
2018-08-17T19:43:42.776Z,17.30
2018-08-17T19:46:11.409Z,17.30
2018-08-17T19:48:39.782Z,17.20
2018-08-17T19:51:13.755Z,17.10
2018-08-17T19:53:42.251Z,17.10
2018-08-17T19:56:10.750Z,17.00
2018-08-17T19:58:39.244Z,16.90
2018-08-17T20:01:07.719Z,16.90
2018-08-17T20:03:36.422Z,16.80
2018-08-17T20:06:04.909Z,16.70
2018-08-17T20:08:33.412Z,16.70
2018-08-17T20:11:01.904Z,16.60
2018-08-17T20:13:31.131Z,16.60
2018-08-17T20:16:00.079Z,16.50
2018-08-17T20:18:28.895Z,16.50
2018-08-17T20:20:57.476Z,16.50
2018-08-17T20:23:25.964Z,16.40
2018-08-17T20:25:54.629Z,16.40
2018-08-17T20:28:23.026Z,16.30
2018-08-17T20:30:51.525Z,16.30
2018-08-17T20:33:25.077Z,16.30
2018-08-17T20:35:53.763Z,16.20
2018-08-17T20:38:22.359Z,16.20
2018-08-17T20:40:52.892Z,16.10
2018-08-17T20:43:21.496Z,16.10
2018-08-17T20:45:50.028Z,16.10
2018-08-17T20:48:18.513Z,16.00
2018-08-17T20:50:48.103Z,16.00
2018-08-17T20:53:19.330Z,15.90
2018-08-17T20:55:48.099Z,15.90
2018-08-17T20:58:16.956Z,15.90
2018-08-17T21:00:45.475Z,15.80
2018-08-17T21:03:13.980Z,15.80
2018-08-17T21:05:42.516Z,15.80
2018-08-17T21:08:11.057Z,15.70
2018-08-17T21:10:39.741Z,15.70
2018-08-17T21:13:08.239Z,15.70
2018-08-17T21:15:36.982Z,15.60
2018-08-17T21:18:05.657Z,15.60
2018-08-17T21:20:34.275Z,15.60
2018-08-17T21:23:02.749Z,15.60
2018-08-17T21:25:31.264Z,15.50
2018-08-17T21:27:59.766Z,15.50
2018-08-17T21:30:28.369Z,15.50
2018-08-17T21:32:56.885Z,15.40
